createdAt,value
2017-09-17T00:02:34.877Z,44.92
2017-09-17T00:17:34.871Z,45.00
2017-09-17T00:32:34.814Z,44.92
2017-09-17T00:47:34.976Z,45.17
2017-09-17T01:02:35.207Z,45.13
2017-09-17T01:17:35.212Z,44.88
2017-09-17T01:32:35.215Z,44.82
2017-09-17T01:47:35.175Z,44.81
2017-09-17T02:02:34.577Z,44.62
2017-09-17T02:17:34.764Z,44.74
2017-09-17T02:32:34.501Z,44.85
2017-09-17T02:47:34.513Z,44.76
2017-09-17T03:02:34.952Z,44.76
2017-09-17T03:17:35.188Z,44.71
2017-09-17T03:32:34.886Z,44.68
2017-09-17T03:47:34.904Z,47.66
2017-09-17T04:02:35.307Z,50.63
2017-09-17T04:17:35.558Z,46.86
2017-09-17T04:32:35.242Z,49.05
2017-09-17T04:47:35.268Z,47.87
2017-09-17T05:02:34.690Z,49.79
2017-09-17T05:17:34.672Z,47.02
2017-09-17T05:32:34.128Z,44.78
2017-09-17T05:47:34.553Z,42.16
2017-09-17T06:02:35.020Z,40.16
2017-09-17T06:17:34.989Z,39.12
2017-09-17T06:32:34.989Z,36.71
2017-09-17T06:47:37.495Z,34.49
2017-09-17T07:02:35.417Z,32.75
2017-09-17T07:17:35.330Z,31.63
2017-09-17T07:32:35.408Z,30.97
2017-09-17T07:47:35.448Z,30.52
2017-09-17T08:02:34.780Z,29.79
2017-09-17T08:17:34.753Z,28.44
2017-09-17T08:32:34.707Z,28.98
2017-09-17T08:47:36.822Z,28.55
2017-09-17T09:02:34.618Z,27.22
2017-09-17T09:17:37.143Z,26.74
2017-09-17T09:32:34.938Z,26.16
2017-09-17T09:47:34.668Z,25.54
2017-09-17T10:02:35.037Z,25.14
2017-09-17T10:17:34.587Z,25.33
2017-09-17T10:32:34.549Z,24.91
2017-09-17T10:47:34.482Z,24.66
2017-09-17T11:02:34.908Z,23.91
2017-09-17T11:17:34.955Z,22.43
2017-09-17T11:32:36.850Z,21.69
2017-09-17T11:47:36.887Z,21.25
2017-09-17T12:02:35.275Z,21.85
2017-09-17T12:17:35.258Z,21.81
2017-09-17T12:32:35.285Z,22.33
2017-09-17T12:47:35.242Z,22.37
2017-09-17T13:02:34.707Z,22.93
2017-09-17T13:17:34.590Z,22.64
2017-09-17T13:32:34.718Z,23.00
2017-09-17T13:47:34.659Z,23.03
2017-09-17T14:02:36.550Z,23.59
2017-09-17T14:17:34.998Z,24.33
2017-09-17T14:32:35.030Z,25.64
2017-09-17T14:47:34.919Z,24.56
2017-09-17T15:02:34.406Z,24.65
2017-09-17T15:17:34.380Z,24.59
2017-09-17T15:32:34.465Z,24.83
2017-09-17T15:47:34.423Z,24.90
2017-09-17T16:02:34.794Z,26.13
2017-09-17T16:17:34.873Z,27.61
2017-09-17T16:32:34.795Z,28.71
2017-09-17T16:47:36.872Z,29.96
2017-09-17T17:02:35.391Z,30.94
2017-09-17T17:17:35.207Z,31.25
2017-09-17T17:32:35.997Z,31.93
2017-09-17T17:47:35.190Z,31.43
2017-09-17T18:02:34.649Z,31.06
2017-09-17T18:17:34.607Z,31.38
2017-09-17T18:32:34.658Z,30.79
2017-09-17T18:47:34.581Z,30.49
2017-09-17T19:02:37.848Z,30.48
2017-09-17T19:17:35.041Z,30.38
2017-09-17T19:32:35.143Z,30.25
2017-09-17T19:47:35.997Z,30.34
2017-09-17T20:02:34.424Z,30.30
2017-09-17T20:17:34.372Z,31.25
2017-09-17T20:32:34.419Z,33.38
2017-09-17T20:47:34.406Z,34.92
2017-09-17T21:02:34.775Z,36.43
2017-09-17T21:17:34.796Z,37.46
2017-09-17T21:32:34.707Z,38.02
2017-09-17T21:47:36.712Z,38.24
2017-09-17T22:02:35.143Z,38.27
2017-09-17T22:17:35.127Z,38.55
2017-09-17T22:32:35.115Z,38.67
2017-09-17T22:47:35.079Z,39.02
2017-09-17T23:02:34.556Z,39.21
2017-09-17T23:17:36.545Z,39.56
2017-09-17T23:32:36.434Z,39.78
2017-09-17T23:47:34.434Z,39.76
